Time;durP1;ratioP1;P1;durP2;ratioP2;P2;SDS_P1;SDS_P2;PMS_P1;PMS_P2;Temp;Humidity;BMP_temperature;BMP_pressure;BME280_temperature;BME280_humidity;BME280_pressure;Samples;Min_cycle;Max_cycle;Signal;HPM_P1;HPM_P2
2023/03/05 02:42:56;;;;;;;;;;;;;;;;;;;;;
2023/03/05 02:49:35;;;;;;;;;;;;;;;;;;;;;
2023/03/05 02:56:31;;;;;;;;;;;;;;;;;;;;;
2023/03/05 03:02:46;;;;;;;;;;;;;;;;;;;;;
2023/03/05 03:36:02;;;;;;;;;;;;;;;;;;;;;
2023/03/05 03:39:34;;;;;;;;;;;;;;;;;;;;;
2023/03/05 03:42:51;;;;;;;;;;;;;;;;;;;;;
2023/03/05 03:53:17;;;;;;;;;;;;;;;;;;;;;
2023/03/05 03:59:39;;;;;;;;;;;;;;;;;;;;;
2023/03/05 04:02:30;;;;;;;;;;;;;;;;;;;;;
2023/03/05 04:05:27;;;;;;;;;;;;;;;;;;;;;
2023/03/05 04:08:14;;;;;;;22.47;10.50;;;;;;;6.17;74.95;98557.44;5981352;24;20247;-91
2023/03/05 04:10:49;;;;;;;21.63;11.13;;;;;;;6.23;75.46;98563.28;5958707;24;20170;-90
2023/03/05 04:13:20;;;;;;;22.70;9.50;;;;;;;6.35;75.24;98552.31;6012725;23;20161;-89
2023/03/05 04:16:02;;;;;;;21.83;9.60;;;;;;;6.41;75.46;98554.66;6063142;23;20154;-90
2023/03/05 04:18:33;;;;;;;20.30;9.60;;;;;;;6.50;74.54;98556.84;6162128;23;20467;-90
2023/03/05 04:21:01;;;;;;;16.87;8.50;;;;;;;6.55;74.22;98560.91;6187299;23;20170;-90
2023/03/05 04:23:29;;;;;;;25.33;11.93;;;;;;;6.54;73.82;98561.00;6161718;23;20169;-90
2023/03/05 04:25:54;;;;;;;24.50;10.63;;;;;;;6.52;73.39;98553.25;6161687;23;20579;-89
2023/03/05 04:28:29;;;;;;;27.37;11.07;;;;;;;6.53;72.72;98554.09;6161211;23;20226;-89
2023/03/05 04:30:56;;;;;;;22.13;9.97;;;;;;;6.63;72.88;98553.59;6187968;23;20161;-90
2023/03/05 04:33:25;;;;;;;27.23;10.60;;;;;;;6.60;71.84;98556.34;6161354;23;20601;-89
2023/03/05 04:35:51;;;;;;;25.13;9.60;;;;;;;6.42;71.92;98549.38;6186894;23;20222;-90
2023/03/05 04:38:19;;;;;;;24.57;10.53;;;;;;;6.40;71.19;98548.59;6187169;23;20216;-90
2023/03/05 04:40:45;;;;;;;23.13;10.47;;;;;;;6.45;71.47;98551.84;6186848;23;20221;-89
2023/03/05 04:43:11;;;;;;;21.10;10.90;;;;;;;6.51;71.18;98545.50;6160776;23;20180;-89
2023/03/05 04:45:39;;;;;;;20.33;10.77;;;;;;;6.57;71.75;98546.09;6186899;23;20150;-90
2023/03/05 04:48:04;;;;;;;19.33;10.50;;;;;;;6.61;71.16;98546.78;6160846;23;20150;-89
2023/03/05 04:50:30;;;;;;;22.87;10.90;;;;;;;6.58;71.19;98546.91;6160715;23;20184;-89
2023/03/05 04:52:55;;;;;;;19.43;10.93;;;;;;;6.49;71.48;98550.78;6160960;23;20241;-90
2023/03/05 04:55:21;;;;;;;23.37;11.27;;;;;;;6.43;71.67;98553.66;6187420;23;20146;-89
2023/03/05 04:57:46;;;;;;;20.13;10.60;;;;;;;6.37;71.34;98558.31;6161037;23;20591;-89
2023/03/05 05:00:14;;;;;;;29.97;11.87;;;;;;;6.36;71.01;98560.06;6160693;23;20186;-89
2023/03/05 05:02:41;;;;;;;26.30;12.70;;;;;;;6.38;71.03;98558.25;6160719;23;20150;-89
2023/03/05 05:05:09;;;;;;;24.03;11.03;;;;;;;6.37;71.24;98559.13;6187175;23;20162;-90
2023/03/05 05:07:34;;;;;;;127.40;50.23;;;;;;;6.42;71.36;98570.19;6160855;23;20462;-90
2023/03/05 05:09:59;;;;;;;92.13;35.57;;;;;;;6.50;71.27;98569.88;6160562;23;20232;-90
2023/03/05 05:12:29;;;;;;;49.93;21.77;;;;;;;6.42;71.48;98569.38;6186616;23;20562;-90
2023/03/05 05:14:54;;;;;;;41.67;18.13;;;;;;;6.34;71.44;98569.69;6160640;23;20166;-89
2023/03/05 05:17:20;;;;;;;39.77;14.40;;;;;;;6.34;71.96;98572.28;6187184;23;20168;-90
2023/03/05 05:19:45;;;;;;;26.60;12.63;;;;;;;6.43;71.96;98578.84;6160519;23;20193;-90
2023/03/05 05:22:11;;;;;;;21.40;9.40;;;;;;;6.47;71.93;98576.03;6186481;23;20147;-90
2023/03/05 05:24:36;;;;;;;17.70;7.97;;;;;;;6.49;71.70;98583.78;6160365;23;20154;-90
2023/03/05 05:27:02;;;;;;;17.93;8.67;;;;;;;6.46;71.90;98584.78;6160543;23;20618;-89
2023/03/05 05:29:27;;;;;;;19.63;9.30;;;;;;;6.50;72.42;98588.91;6187032;23;20174;-90
2023/03/05 05:31:53;;;;;;;19.30;8.43;;;;;;;6.58;71.98;98583.34;6186405;23;20229;-90
2023/03/05 05:34:18;;;;;;;15.77;7.53;;;;;;;6.70;72.61;98590.63;6160251;23;20161;-89
2023/03/05 05:36:44;;;;;;;23.90;9.53;;;;;;;6.81;72.49;98585.78;6186381;23;20157;-90
2023/03/05 05:39:09;;;;;;;16.00;7.57;;;;;;;6.86;72.22;98583.81;6186307;23;20150;-90
2023/03/05 05:41:38;;;;;;;21.80;8.73;;;;;;;6.93;72.52;98584.34;6160201;23;20197;-89
2023/03/05 05:44:03;;;;;;;20.53;7.27;;;;;;;6.95;73.01;98582.50;6160205;23;20169;-89
2023/03/05 05:46:29;;;;;;;17.53;7.10;;;;;;;7.10;72.59;98584.41;6160491;23;20155;-90
2023/03/05 05:48:54;;;;;;;17.97;8.60;;;;;;;7.22;72.77;98582.06;6160580;23;20241;-90
2023/03/05 05:51:24;;;;;;;19.00;8.00;;;;;;;7.43;72.14;98588.84;6160406;23;20150;-90
2023/03/05 05:53:57;;;;;;;19.33;9.13;;;;;;;7.58;72.31;98584.63;6186282;23;20631;-90
2023/03/05 05:56:26;;;;;;;22.73;9.00;;;;;;;7.74;72.18;98582.13;6186296;23;20131;-90
2023/03/05 05:58:59;;;;;;;17.57;8.13;;;;;;;7.86;72.46;98579.72;6160356;23;20225;-91
2023/03/05 06:02:30;;;;;;;;;;;;;;;;;;;;;
